Time;durP1;ratioP1;P1;durP2;ratioP2;P2;SDS_P1;SDS_P2;PMS_P1;PMS_P2;Temp;Humidity;BMP_temperature;BMP_pressure;BME280_temperature;BME280_humidity;BME280_pressure;Samples;Min_cycle;Max_cycle;Signal;HPM_P1;HPM_P2
2022/07/17 00:01:03;;;;;;;10.27;5.35;;;24.60;39.60;;;;;;5020553;28;20029;-77
2022/07/17 00:03:28;;;;;;;9.20;3.70;;;24.60;39.80;;;;;;5022141;28;20049;-77
2022/07/17 00:05:54;;;;;;;9.23;3.60;;;24.60;39.90;;;;;;5025337;28;20076;-77
2022/07/17 00:08:20;;;;;;;7.55;3.10;;;24.60;40.00;;;;;;5022283;28;20466;-77
2022/07/17 00:10:46;;;;;;;7.28;3.15;;;24.50;40.00;;;;;;5023296;28;20675;-77
2022/07/17 00:13:11;;;;;;;8.05;3.00;;;24.50;40.20;;;;;;5009055;28;20036;-78
2022/07/17 00:15:37;;;;;;;8.90;3.03;;;24.50;40.40;;;;;;5018342;28;20022;-77
2022/07/17 00:18:06;;;;;;;9.60;3.20;;;24.40;40.50;;;;;;5025904;28;20040;-77
2022/07/17 00:20:32;;;;;;;6.97;3.30;;;24.40;40.70;;;;;;5018929;28;20025;-78
2022/07/17 00:22:59;;;;;;;8.85;3.28;;;24.40;40.80;;;;;;5020493;28;20025;-77
2022/07/17 00:25:32;;;;;;;10.23;3.20;;;24.40;40.80;;;;;;5016163;28;20033;-76
2022/07/17 00:27:58;;;;;;;7.35;3.38;;;24.30;40.90;;;;;;5027548;28;20476;-77
2022/07/17 00:30:24;;;;;;;11.10;3.38;;;24.30;41.10;;;;;;5030451;28;20109;-77
2022/07/17 00:32:49;;;;;;;6.38;3.10;;;24.30;41.30;;;;;;5018845;28;20448;-76
2022/07/17 00:35:15;;;;;;;7.32;3.30;;;24.30;41.40;;;;;;5021099;28;20037;-77
2022/07/17 00:37:44;;;;;;;6.50;2.80;;;24.30;41.70;;;;;;5022698;28;20030;-77
2022/07/17 00:40:12;;;;;;;7.03;3.30;;;24.20;41.80;;;;;;5024505;28;20037;-77
2022/07/17 00:42:42;;;;;;;8.00;3.30;;;24.10;41.70;;;;;;5028910;28;20408;-77
2022/07/17 00:45:09;;;;;;;5.57;3.20;;;24.10;41.80;;;;;;5015465;28;20049;-77
2022/07/17 00:48:00;;;;;;;9.00;3.10;;;24.10;41.90;;;;;;5020008;28;20037;-76
2022/07/17 00:50:33;;;;;;;6.40;3.00;;;24.00;42.00;;;;;;5027963;28;20111;-76
2022/07/17 00:52:59;;;;;;;7.40;3.33;;;24.00;42.00;;;;;;5024332;28;20037;-76
2022/07/17 00:55:25;;;;;;;11.27;6.00;;;24.00;42.20;;;;;;5019810;28;20033;-76
2022/07/17 00:57:54;;;;;;;12.65;6.80;;;23.90;42.30;;;;;;5008622;28;20552;-77
2022/07/17 01:00:20;;;;;;;7.60;4.00;;;23.90;42.50;;;;;;5026001;28;20021;-77
2022/07/17 01:02:48;;;;;;;6.85;3.22;;;23.80;42.70;;;;;;5029604;28;20037;-76
2022/07/17 01:05:14;;;;;;;10.95;5.38;;;23.80;42.90;;;;;;5023634;28;20049;-77
2022/07/17 01:07:40;;;;;;;6.40;3.20;;;23.70;43.00;;;;;;5022738;28;20304;-77
2022/07/17 01:10:06;;;;;;;9.30;3.10;;;23.70;43.20;;;;;;5020250;28;20484;-77
2022/07/17 01:12:33;;;;;;;6.05;3.00;;;23.70;43.20;;;;;;5024352;28;20033;-77
2022/07/17 01:14:59;;;;;;;9.95;3.85;;;23.70;43.20;;;;;;5022258;28;20099;-77
2022/07/17 01:17:25;;;;;;;7.22;2.97;;;23.70;43.50;;;;;;5018845;28;20062;-77
2022/07/17 01:19:52;;;;;;;6.85;3.20;;;23.70;43.80;;;;;;5018124;28;20033;-77
2022/07/17 01:22:18;;;;;;;9.98;3.00;;;23.70;43.90;;;;;;5026697;28;20037;-77
2022/07/17 01:24:43;;;;;;;7.03;2.70;;;23.70;44.10;;;;;;5029076;28;20031;-77
2022/07/17 01:27:09;;;;;;;9.60;2.85;;;23.60;43.90;;;;;;5018927;28;20104;-77
2022/07/17 01:29:39;;;;;;;7.60;2.65;;;23.60;43.80;;;;;;5023422;28;20041;-77
2022/07/17 01:32:05;;;;;;;5.63;2.60;;;23.60;43.80;;;;;;5028225;28;20030;-77
2022/07/17 01:34:31;;;;;;;7.03;2.80;;;23.60;43.90;;;;;;5020201;28;20568;-77
2022/07/17 01:36:57;;;;;;;4.97;2.70;;;23.50;43.90;;;;;;5032857;28;20030;-77
2022/07/17 01:42:07;;;;;;;9.93;6.05;;;23.50;44.00;;;;;;5023353;28;20531;-77
2022/07/17 01:44:33;;;;;;;9.25;4.70;;;23.40;44.00;;;;;;5027691;28;20116;-77
2022/07/17 01:46:58;;;;;;;7.28;3.35;;;23.40;44.20;;;;;;5025695;28;20610;-77
2022/07/17 01:49:24;;;;;;;6.65;3.10;;;23.30;44.30;;;;;;5026034;28;20037;-76
2022/07/17 01:51:50;;;;;;;5.18;2.90;;;23.30;44.60;;;;;;5028461;28;20053;-77
2022/07/17 01:54:15;;;;;;;6.28;2.78;;;23.30;45.10;;;;;;5022930;28;20496;-77
2022/07/17 01:56:41;;;;;;;6.50;3.05;;;23.30;45.40;;;;;;5025447;28;20397;-77
2022/07/17 01:59:08;;;;;;;4.85;2.70;;;23.20;45.40;;;;;;5029159;28;20132;-77
2022/07/17 02:01:33;;;;;;;5.25;2.78;;;23.20;45.50;;;;;;5025193;28;20021;-77
2022/07/17 02:03:59;;;;;;;5.45;3.10;;;23.20;45.60;;;;;;5035783;28;20035;-77
2022/07/17 02:06:25;;;;;;;10.93;2.70;;;23.10;46.10;;;;;;5019893;28;20033;-77
2022/07/17 02:08:51;;;;;;;6.40;3.10;;;23.10;46.30;;;;;;5019194;28;20034;-78
2022/07/17 02:11:17;;;;;;;4.53;2.60;;;23.20;48.20;;;;;;5025054;28;20036;-77
2022/07/17 02:13:43;;;;;;;5.25;2.58;;;23.00;46.40;;;;;;5025215;28;20022;-77
2022/07/17 02:16:09;;;;;;;7.28;2.80;;;22.90;48.30;;;;;;5026815;28;20068;-77
2022/07/17 02:18:35;;;;;;;7.88;3.00;;;22.90;46.40;;;;;;5013048;28;20582;-77
2022/07/17 02:21:01;;;;;;;5.60;2.40;;;22.90;46.50;;;;;;5021176;28;20080;-78
2022/07/17 02:23:28;;;;;;;5.38;2.80;;;22.90;46.60;;;;;;5020512;28;20026;-78
2022/07/17 02:25:54;;;;;;;6.20;2.72;;;22.80;46.70;;;;;;5023817;28;20021;-77
2022/07/17 02:28:20;;;;;;;5.65;3.00;;;22.80;46.80;;;;;;5016876;28;20067;-77
2022/07/17 02:30:47;;;;;;;6.28;2.83;;;22.80;46.90;;;;;;5025525;28;20036;-77
2022/07/17 02:33:13;;;;;;;5.45;2.75;;;22.80;46.80;;;;;;5024135;28;20025;-78
2022/07/17 02:35:39;;;;;;;6.70;2.75;;;22.70;46.90;;;;;;5019898;28;20052;-77
2022/07/17 02:38:05;;;;;;;4.53;2.78;;;22.60;47.00;;;;;;5023490;28;20029;-77
2022/07/17 02:40:30;;;;;;;5.03;2.78;;;22.60;47.20;;;;;;5024143;28;20041;-77
2022/07/17 02:42:56;;;;;;;13.07;2.92;;;22.50;47.30;;;;;;5010359;28;20026;-77
2022/07/17 02:45:24;;;;;;;5.22;2.50;;;22.50;47.30;;;;;;5024676;28;20040;-76
2022/07/17 02:47:50;;;;;;;7.07;2.88;;;22.50;47.40;;;;;;5017001;28;20100;-77
2022/07/17 02:50:16;;;;;;;5.78;2.70;;;22.40;47.50;;;;;;5017128;28;20045;-77
2022/07/17 02:52:43;;;;;;;7.72;2.50;;;22.40;47.60;;;;;;5024978;28;20030;-77
2022/07/17 02:55:10;;;;;;;8.80;2.95;;;22.30;47.60;;;;;;5021080;28;20103;-77
2022/07/17 02:57:39;;;;;;;9.80;2.53;;;22.30;47.60;;;;;;5027847;28;20029;-77
2022/07/17 03:00:07;;;;;;;6.78;2.85;;;22.90;49.40;;;;;;5025113;28;20029;-77
2022/07/17 03:02:33;;;;;;;7.88;2.67;;;22.20;47.90;;;;;;5019324;28;20037;-77
2022/07/17 03:04:59;;;;;;;10.52;2.63;;;22.20;47.50;;;;;;5025349;28;20383;-77
2022/07/17 03:07:24;;;;;;;5.22;2.60;;;22.30;47.30;;;;;;5028043;28;20061;-77
2022/07/17 03:09:50;;;;;;;5.82;3.00;;;22.20;47.00;;;;;;5027820;28;20033;-77
2022/07/17 03:12:16;;;;;;;7.43;2.65;;;22.20;46.70;;;;;;5017981;28;20025;-76
2022/07/17 03:14:42;;;;;;;5.50;2.40;;;22.20;46.50;;;;;;5028560;28;20041;-77
2022/07/17 03:17:08;;;;;;;7.20;2.95;;;22.20;46.10;;;;;;5021910;28;20030;-77
2022/07/17 03:19:34;;;;;;;7.63;2.80;;;22.20;46.00;;;;;;5029046;28;20037;-77
2022/07/17 03:21:59;;;;;;;8.32;2.63;;;22.20;46.00;;;;;;5018320;28;20080;-77
2022/07/17 03:24:25;;;;;;;6.13;2.63;;;22.20;45.70;;;;;;5027846;28;20037;-78
2022/07/17 03:26:51;;;;;;;6.57;3.05;;;22.20;45.70;;;;;;5017271;28;20060;-77
2022/07/17 03:29:17;;;;;;;6.15;2.90;;;22.10;45.50;;;;;;5027526;28;20049;-78
2022/07/17 03:31:46;;;;;;;11.15;2.80;;;22.10;45.50;;;;;;5022963;28;20026;-78
2022/07/17 03:34:12;;;;;;;9.83;2.53;;;22.10;45.40;;;;;;5036113;28;20040;-77
2022/07/17 03:36:38;;;;;;;8.07;2.65;;;22.00;45.10;;;;;;5028929;28;20033;-77
2022/07/17 03:39:03;;;;;;;8.02;2.88;;;22.00;45.10;;;;;;5025681;28;20120;-77
2022/07/17 03:41:29;;;;;;;9.43;2.58;;;22.00;45.10;;;;;;5025505;28;20029;-77
2022/07/17 03:43:55;;;;;;;7.13;2.50;;;22.00;45.10;;;;;;5023455;28;20131;-77
2022/07/17 03:46:21;;;;;;;6.95;2.70;;;22.00;45.10;;;;;;5031933;28;20696;-77
2022/07/17 03:48:47;;;;;;;7.10;2.78;;;22.00;45.10;;;;;;5027512;28;20041;-77
2022/07/17 03:51:12;;;;;;;6.88;2.67;;;22.00;45.00;;;;;;5025329;28;20491;-77
2022/07/17 03:53:38;;;;;;;5.13;2.42;;;22.60;46.60;;;;;;5023073;28;20025;-77
2022/07/17 03:56:04;;;;;;;6.40;2.60;;;21.90;45.10;;;;;;5023725;28;20787;-77
2022/07/17 03:58:30;;;;;;;6.00;2.78;;;21.80;45.00;;;;;;5010936;28;20539;-78
2022/07/17 04:00:56;;;;;;;7.47;2.97;;;21.80;45.00;;;;;;5032783;28;20083;-77
2022/07/17 04:03:22;;;;;;;8.50;2.80;;;21.80;45.00;;;;;;5022258;28;20112;-77
2022/07/17 04:05:48;;;;;;;8.40;2.60;;;21.80;45.00;;;;;;5027395;28;20033;-77
2022/07/17 04:08:13;;;;;;;8.45;2.85;;;22.90;47.00;;;;;;5023371;28;20029;-78
2022/07/17 04:10:39;;;;;;;6.47;2.72;;;21.70;45.00;;;;;;5023906;28;20034;-77
2022/07/17 04:13:05;;;;;;;10.77;2.90;;;21.70;45.00;;;;;;5020124;28;20030;-77
2022/07/17 04:18:16;;;;;;;11.57;2.88;;;21.60;45.10;;;;;;5024450;28;20087;-78
2022/07/17 04:20:42;;;;;;;6.95;2.80;;;21.60;45.20;;;;;;5016471;28;20044;-77
2022/07/17 04:23:07;;;;;;;6.35;2.65;;;21.50;45.30;;;;;;5020933;28;20104;-78
2022/07/17 04:25:33;;;;;;;6.45;2.67;;;21.60;45.30;;;;;;5019065;28;20408;-76
2022/07/17 04:27:59;;;;;;;7.18;2.60;;;21.50;45.20;;;;;;5026648;28;20029;-77
2022/07/17 04:30:24;;;;;;;7.00;2.45;;;21.50;45.20;;;;;;5023334;28;20042;-77
2022/07/17 04:32:50;;;;;;;9.15;2.63;;;21.50;45.20;;;;;;5024810;28;20036;-77
2022/07/17 04:35:16;;;;;;;9.57;2.40;;;21.50;45.20;;;;;;5019961;28;20042;-77
2022/07/17 04:37:41;;;;;;;6.18;2.78;;;21.60;45.20;;;;;;5030700;28;20527;-77
2022/07/17 04:40:08;;;;;;;8.38;2.70;;;21.50;45.20;;;;;;5020767;28;20037;-77
2022/07/17 04:42:34;;;;;;;4.93;2.58;;;21.60;45.20;;;;;;5025006;28;20052;-77
2022/07/17 04:45:00;;;;;;;8.55;2.75;;;21.50;45.10;;;;;;5024586;28;20064;-76
2022/07/17 04:47:25;;;;;;;6.32;2.45;;;21.50;45.00;;;;;;5022949;28;20045;-77
2022/07/17 04:49:51;;;;;;;5.75;2.70;;;21.50;45.10;;;;;;5026240;28;20022;-77
2022/07/17 04:52:17;;;;;;;9.50;2.50;;;21.60;45.20;;;;;;5032668;28;20091;-77
2022/07/17 04:54:42;;;;;;;9.95;2.35;;;21.60;45.10;;;;;;5022590;28;20038;-77
2022/07/17 04:57:08;;;;;;;5.10;2.50;;;21.50;46.00;;;;;;5023593;28;20040;-77
2022/07/17 04:59:36;;;;;;;5.10;2.40;;;21.50;45.10;;;;;;5017704;28;20092;-77
2022/07/17 05:02:03;;;;;;;5.60;2.30;;;21.50;45.20;;;;;;5020370;28;20025;-77
2022/07/17 05:04:29;;;;;;;5.47;2.10;;;21.60;45.20;;;;;;5025033;28;20033;-77
2022/07/17 05:06:54;;;;;;;8.18;2.33;;;21.50;45.10;;;;;;5024570;28;20116;-77
2022/07/17 05:09:20;;;;;;;8.32;2.22;;;21.50;45.10;;;;;;5025317;28;20026;-77
2022/07/17 05:11:46;;;;;;;9.95;2.60;;;21.60;45.10;;;;;;5024975;28;20029;-78
2022/07/17 05:14:11;;;;;;;5.05;2.35;;;21.60;45.20;;;;;;5024643;28;20033;-77
2022/07/17 05:16:37;;;;;;;7.78;2.60;;;21.60;45.30;;;;;;5023654;28;20030;-77
2022/07/17 05:19:03;;;;;;;6.18;2.50;;;21.70;45.30;;;;;;5028756;28;20036;-78
2022/07/17 05:21:28;;;;;;;8.38;2.30;;;21.70;45.20;;;;;;5027307;28;20033;-77
2022/07/17 05:23:54;;;;;;;5.60;2.40;;;21.70;45.10;;;;;;5021525;28;20102;-77
2022/07/17 05:26:20;;;;;;;5.20;2.47;;;21.80;45.20;;;;;;5024389;28;20026;-77
2022/07/17 05:28:45;;;;;;;6.45;2.42;;;21.80;45.10;;;;;;5018536;28;20104;-77
2022/07/17 05:31:11;;;;;;;8.20;2.50;;;21.80;45.10;;;;;;5027730;28;20108;-77
2022/07/17 05:33:37;;;;;;;8.27;2.47;;;21.60;47.00;;;;;;5040731;28;20040;-81
2022/07/17 05:36:03;;;;;;;5.05;2.47;;;21.90;45.00;;;;;;5026199;28;20124;-78
2022/07/17 05:38:28;;;;;;;7.93;2.20;;;22.00;45.00;;;;;;5022757;28;20022;-77
2022/07/17 05:40:54;;;;;;;8.90;2.63;;;22.00;44.80;;;;;;5031252;28;20108;-81
2022/07/17 05:43:20;;;;;;;4.05;2.28;;;22.10;44.90;;;;;;5025085;28;20809;-79
2022/07/17 05:45:45;;;;;;;7.68;2.33;;;22.10;44.90;;;;;;5027098;28;20033;-79
2022/07/17 05:48:11;;;;;;;6.03;2.28;;;22.10;45.00;;;;;;5023273;28;20451;-79
2022/07/17 05:50:37;;;;;;;6.07;2.42;;;22.20;44.60;;;;;;5025641;28;20050;-81
2022/07/17 05:53:02;;;;;;;4.95;2.20;;;22.20;44.50;;;;;;5016649;28;20034;-81
2022/07/17 05:55:28;;;;;;;4.57;2.30;;;22.30;44.30;;;;;;5026788;28;20045;-80
2022/07/17 05:57:54;;;;;;;6.30;2.50;;;22.40;44.30;;;;;;5027083;28;20025;-80
2022/07/17 06:00:20;;;;;;;5.22;2.50;;;22.40;44.40;;;;;;5026562;28;20061;-78
2022/07/17 06:02:46;;;;;;;5.22;2.33;;;21.70;45.90;;;;;;5024501;28;20041;-77
2022/07/17 06:05:11;;;;;;;6.53;2.33;;;22.50;44.30;;;;;;5025199;28;20031;-78
2022/07/17 06:07:37;;;;;;;6.43;2.50;;;22.60;44.30;;;;;;5022593;28;20034;-75
2022/07/17 06:10:07;;;;;;;5.90;2.60;;;22.70;43.90;;;;;;5023045;28;20407;-77
2022/07/17 06:12:32;;;;;;;6.47;2.50;;;22.80;43.60;;;;;;5025993;28;20057;-79
2022/07/17 06:14:58;;;;;;;4.63;2.30;;;22.80;43.40;;;;;;5027641;28;20142;-78
2022/07/17 06:17:24;;;;;;;7.85;2.45;;;22.90;43.20;;;;;;5024016;28;20099;-80
2022/07/17 06:19:52;;;;;;;7.55;2.53;;;23.00;43.00;;;;;;5023562;28;20026;-77
2022/07/17 06:22:21;;;;;;;5.45;2.45;;;24.00;44.20;;;;;;5026671;28;20026;-76
2022/07/17 06:24:48;;;;;;;7.90;2.40;;;23.20;42.80;;;;;;5026635;28;20045;-76
2022/07/17 06:27:13;;;;;;;3.85;2.22;;;23.30;42.50;;;;;;5032921;28;20028;-77
2022/07/17 06:29:39;;;;;;;5.07;2.20;;;23.50;42.10;;;;;;5028014;28;20653;-77
2022/07/17 06:32:05;;;;;;;5.22;2.10;;;23.60;41.50;;;;;;5023420;28;20544;-75
2022/07/17 06:34:31;;;;;;;6.45;2.15;;;23.80;41.00;;;;;;5023905;28;20021;-76
2022/07/17 06:36:57;;;;;;;5.72;2.15;;;23.90;40.70;;;;;;5029010;28;20045;-76
2022/07/17 06:39:23;;;;;;;7.72;2.33;;;24.10;40.40;;;;;;5023487;28;20034;-75
2022/07/17 06:41:48;;;;;;;5.55;2.42;;;24.30;39.90;;;;;;5026648;28;20029;-75
2022/07/17 06:44:14;;;;;;;5.95;2.20;;;24.50;39.40;;;;;;5025165;28;20021;-75
2022/07/17 06:46:40;;;;;;;5.75;1.80;;;24.70;39.00;;;;;;5023670;28;20825;-76
2022/07/17 06:49:06;;;;;;;7.65;1.98;;;25.00;38.30;;;;;;5029543;28;20114;-77
2022/07/17 06:51:31;;;;;;;5.15;2.10;;;25.30;37.60;;;;;;5024346;28;20049;-75
2022/07/17 06:53:57;;;;;;;9.50;1.90;;;25.60;36.60;;;;;;5024217;28;20053;-75
2022/07/17 06:56:23;;;;;;;4.40;2.20;;;26.20;35.60;;;;;;5025000;28;20163;-73
2022/07/17 06:58:48;;;;;;;5.28;2.08;;;26.80;34.40;;;;;;5022488;28;20034;-74
2022/07/17 07:01:14;;;;;;;6.60;2.30;;;27.50;32.80;;;;;;5021307;28;20057;-75
2022/07/17 07:03:40;;;;;;;6.60;1.80;;;28.20;31.50;;;;;;5025918;28;20033;-73
2022/07/17 07:06:06;;;;;;;4.57;1.60;;;28.80;30.00;;;;;;5025264;28;20130;-75
2022/07/17 07:08:33;;;;;;;5.82;2.00;;;29.10;29.30;;;;;;5018148;28;20034;-76
2022/07/17 07:13:04;;;;;;;6.10;1.95;;;29.80;27.70;;;;;;5048957;28;20823;-75
2022/07/17 07:15:29;;;;;;;9.05;2.03;;;30.40;27.80;;;;;;5034898;28;20017;-74
2022/07/17 07:17:55;;;;;;;5.28;2.00;;;30.80;26.20;;;;;;5041065;28;20119;-76
2022/07/17 07:20:21;;;;;;;6.78;1.90;;;30.80;26.80;;;;;;5040922;28;20075;-76
2022/07/17 07:22:46;;;;;;;5.70;1.73;;;31.20;26.40;;;;;;5041389;28;20029;-75
2022/07/17 07:25:12;;;;;;;5.15;1.80;;;31.00;26.40;;;;;;5034500;28;20029;-75
2022/07/17 07:27:38;;;;;;;4.65;1.90;;;30.70;27.00;;;;;;5038519;28;20500;-75
2022/07/17 07:30:04;;;;;;;7.60;2.10;;;31.20;26.40;;;;;;5041237;28;20030;-75
2022/07/17 07:32:29;;;;;;;6.18;1.90;;;31.20;26.30;;;;;;5038782;28;20041;-74
2022/07/17 07:34:55;;;;;;;6.13;2.00;;;30.90;26.60;;;;;;5040744;28;20029;-74
2022/07/17 07:37:21;;;;;;;5.18;2.15;;;31.30;26.10;;;;;;5041879;28;20037;-75
2022/07/17 07:39:46;;;;;;;7.57;1.90;;;31.30;26.10;;;;;;5042328;28;20463;-74
2022/07/17 07:42:12;;;;;;;7.35;2.05;;;31.80;25.50;;;;;;5040364;28;20039;-76
2022/07/17 07:44:38;;;;;;;9.38;2.08;;;32.50;24.80;;;;;;5035029;28;20018;-76
2022/07/17 07:47:04;;;;;;;20.02;2.83;;;32.90;24.30;;;;;;5040171;28;20132;-76
2022/07/17 07:49:29;;;;;;;8.23;1.95;;;32.90;24.20;;;;;;5037290;28;20044;-77
2022/07/17 07:51:55;;;;;;;6.25;1.90;;;32.70;24.50;;;;;;5039020;28;20139;-78
2022/07/17 07:54:21;;;;;;;5.50;1.90;;;31.70;24.80;;;;;;5038983;28;20022;-78
2022/07/17 07:56:51;;;;;;;3.53;1.83;;;31.60;25.50;;;;;;5040563;28;20447;-75
2022/07/17 07:59:17;;;;;;;4.47;1.85;;;31.10;26.30;;;;;;5042898;28;20028;-76
2022/07/17 08:01:42;;;;;;;6.93;2.08;;;30.60;27.00;;;;;;5039404;28;20056;-75
2022/07/17 08:04:08;;;;;;;3.63;1.77;;;30.50;27.50;;;;;;5039983;28;20084;-76
2022/07/17 08:06:34;;;;;;;5.90;2.20;;;30.50;27.90;;;;;;5041766;28;20030;-74
2022/07/17 08:09:00;;;;;;;6.63;1.92;;;30.60;27.90;;;;;;5042706;28;20049;-74
2022/07/17 08:11:25;;;;;;;5.95;2.03;;;30.70;27.40;;;;;;5041747;28;20606;-73
2022/07/17 08:13:51;;;;;;;5.82;2.00;;;30.70;27.10;;;;;;5041165;28;20415;-74
2022/07/17 08:16:17;;;;;;;15.77;2.15;;;30.60;27.20;;;;;;5042221;28;20044;-76
2022/07/17 08:18:42;;;;;;;5.18;1.90;;;30.50;26.70;;;;;;5052974;28;20032;-75
2022/07/17 08:21:08;;;;;;;9.20;2.13;;;30.60;27.40;;;;;;5038755;28;20033;-75
2022/07/17 08:23:34;;;;;;;5.50;2.00;;;30.50;27.60;;;;;;5026971;28;20105;-74
2022/07/17 08:26:00;;;;;;;8.57;1.80;;;30.70;27.60;;;;;;5022760;28;20025;-75
2022/07/17 08:28:26;;;;;;;3.97;2.10;;;30.60;27.20;;;;;;5022919;28;20072;-75
2022/07/17 08:30:52;;;;;;;5.30;1.77;;;30.50;27.20;;;;;;5020477;28;20044;-77
2022/07/17 08:33:17;;;;;;;5.18;2.00;;;30.50;27.50;;;;;;5028127;28;20037;-74
2022/07/17 08:35:43;;;;;;;5.38;1.92;;;30.40;27.60;;;;;;5026484;28;20212;-74
2022/07/17 08:38:09;;;;;;;7.28;2.17;;;30.50;26.80;;;;;;5028847;28;20036;-74
2022/07/17 08:40:38;;;;;;;4.95;1.90;;;30.40;26.70;;;;;;5030379;28;20029;-76
2022/07/17 08:43:05;;;;;;;4.20;1.77;;;30.40;27.40;;;;;;5025905;28;20029;-72
2022/07/17 08:45:31;;;;;;;5.93;1.95;;;30.40;27.80;;;;;;5037470;28;20496;-73
2022/07/17 08:47:57;;;;;;;3.63;2.13;;;30.40;27.60;;;;;;5026072;28;20068;-71
2022/07/17 08:50:33;;;;;;;6.25;1.70;;;30.60;27.50;;;;;;5029734;28;20047;-72
2022/07/17 08:52:59;;;;;;;3.85;1.70;;;30.70;27.10;;;;;;5027850;28;20045;-71
2022/07/17 08:55:25;;;;;;;4.55;1.80;;;30.90;26.80;;;;;;5027439;28;20033;-72
2022/07/17 08:57:51;;;;;;;7.15;1.80;;;30.90;26.70;;;;;;5028374;28;20041;-72
2022/07/17 09:00:25;;;;;;;5.05;1.63;;;31.30;27.10;;;;;;5036143;28;20049;-74
2022/07/17 09:02:59;;;;;;;4.82;1.90;;;31.50;26.20;;;;;;5022234;28;20044;-81
2022/07/17 09:05:28;;;;;;;6.90;1.52;;;31.80;25.90;;;;;;5024375;28;20033;-75
2022/07/17 09:07:54;;;;;;;5.72;1.60;;;32.00;25.00;;;;;;5022798;28;20469;-79
2022/07/17 09:10:36;;;;;;;6.43;2.00;;;32.20;25.00;;;;;;5028408;28;20022;-78
2022/07/17 09:13:20;;;;;;;3.47;1.67;;;32.20;24.70;;;;;;5019577;28;20048;-76
2022/07/17 09:15:49;;;;;;;5.20;1.50;;;32.30;24.50;;;;;;5025889;28;20090;-75
2022/07/17 09:18:17;;;;;;;4.10;1.80;;;32.30;25.20;;;;;;5025323;28;20500;-77
2022/07/17 09:20:54;;;;;;;4.18;1.73;;;32.60;24.50;;;;;;5026055;28;20075;-80
2022/07/17 09:23:21;;;;;;;4.68;1.70;;;32.80;24.50;;;;;;5021539;28;20479;-74
2022/07/17 09:25:50;;;;;;;7.25;1.80;;;33.20;23.80;;;;;;5020215;28;20125;-76
2022/07/17 09:28:17;;;;;;;5.10;1.50;;;33.40;23.50;;;;;;5027516;28;20029;-74
2022/07/17 09:30:52;;;;;;;4.80;1.63;;;33.70;22.60;;;;;;5026075;28;20104;-73
2022/07/17 09:33:26;;;;;;;4.22;1.60;;;34.10;22.30;;;;;;5024022;28;20057;-78
2022/07/17 09:35:54;;;;;;;3.20;1.42;;;34.70;21.30;;;;;;5021398;28;20069;-70
2022/07/17 09:38:38;;;;;;;4.20;1.60;;;35.20;20.80;;;;;;5022773;28;20060;-73
2022/07/17 09:41:11;;;;;;;3.55;1.40;;;35.50;20.60;;;;;;5018389;28;20021;-71
2022/07/17 09:43:45;;;;;;;4.20;1.50;;;35.80;20.10;;;;;;5027168;28;20037;-71
2022/07/17 09:46:18;;;;;;;4.32;1.40;;;36.30;19.80;;;;;;5025076;28;20516;-72
2022/07/17 09:48:49;;;;;;;4.72;1.48;;;36.70;19.60;;;;;;5025902;28;20029;-74
2022/07/17 09:51:22;;;;;;;5.65;1.70;;;37.30;18.90;;;;;;5026574;28;20037;-73
2022/07/17 09:53:50;;;;;;;5.82;1.40;;;37.80;18.50;;;;;;5025408;28;20025;-76
2022/07/17 09:56:17;;;;;;;7.75;1.60;;;38.20;17.80;;;;;;5023556;28;20034;-76
2022/07/17 09:58:46;;;;;;;5.47;1.60;;;38.90;16.70;;;;;;5023930;28;20037;-75
2022/07/17 10:01:15;;;;;;;2.70;1.30;;;38.90;17.40;;;;;;5021065;28;20449;-74
2022/07/17 10:03:41;;;;;;;6.43;1.42;;;39.30;17.40;;;;;;5025549;28;20045;-77
2022/07/17 10:06:09;;;;;;;9.02;1.50;;;39.70;17.00;;;;;;5026345;28;20120;-73
2022/07/17 10:08:37;;;;;;;4.32;1.40;;;40.10;16.70;;;;;;5023929;28;20041;-76
2022/07/17 10:11:07;;;;;;;6.95;1.55;;;40.40;16.50;;;;;;5022654;28;20049;-73
2022/07/17 10:13:34;;;;;;;5.78;1.30;;;40.50;16.00;;;;;;5019260;28;20080;-72
2022/07/17 10:16:00;;;;;;;5.10;1.30;;;40.70;16.10;;;;;;5019779;28;20030;-72
2022/07/17 10:18:41;;;;;;;6.90;1.50;;;41.20;16.00;;;;;;5021760;28;20112;-73
2022/07/17 10:21:18;;;;;;;4.05;1.20;;;41.70;14.50;;;;;;5021105;28;20076;-73
2022/07/17 10:23:53;;;;;;;4.90;1.30;;;41.80;15.10;;;;;;5024667;28;20643;-70
2022/07/17 10:26:38;;;;;;;4.45;1.60;;;41.70;15.20;;;;;;5022844;28;20048;-73
2022/07/17 10:29:08;;;;;;;4.50;1.27;;;41.90;15.40;;;;;;5023526;28;20032;-71
2022/07/17 10:31:34;;;;;;;5.72;1.40;;;42.30;14.10;;;;;;5017895;28;20527;-73
2022/07/17 10:34:05;;;;;;;4.78;1.40;;;42.20;14.80;;;;;;5026515;28;20021;-71
2022/07/17 10:36:41;;;;;;;4.35;1.40;;;42.10;15.00;;;;;;5025718;28;20065;-76
2022/07/17 10:39:10;;;;;;;4.38;1.30;;;42.30;14.90;;;;;;5023843;28;20515;-74
2022/07/17 10:41:36;;;;;;;4.68;1.20;;;42.50;14.40;;;;;;5024797;28;20044;-73
2022/07/17 10:44:02;;;;;;;4.63;1.25;;;42.80;14.30;;;;;;5016492;28;20117;-72
2022/07/17 10:46:28;;;;;;;3.22;1.23;;;43.30;13.10;;;;;;5023368;28;20036;-73
2022/07/17 10:48:55;;;;;;;4.47;1.10;;;43.30;13.70;;;;;;5023897;28;20029;-72
2022/07/17 10:51:24;;;;;;;5.65;1.30;;;43.30;13.90;;;;;;5020097;28;20412;-75
2022/07/17 10:53:50;;;;;;;4.75;1.20;;;43.30;13.80;;;;;;5021580;28;20420;-73
2022/07/17 10:56:17;;;;;;;3.25;1.17;;;43.60;13.70;;;;;;5023549;28;20512;-70
2022/07/17 10:58:44;;;;;;;2.30;1.10;;;43.60;13.40;;;;;;5016107;28;20029;-72
2022/07/17 11:01:12;;;;;;;2.50;1.00;;;43.20;13.30;;;;;;5016397;28;20552;-72
2022/07/17 11:03:47;;;;;;;3.60;1.20;;;43.20;13.00;;;;;;5027471;28;20021;-72
2022/07/17 11:06:16;;;;;;;4.82;1.38;;;43.10;13.60;;;;;;5020257;28;20033;-72
2022/07/17 11:09:09;;;;;;;2.97;1.30;;;43.30;13.60;;;;;;5021351;28;20053;-72
2022/07/17 11:11:42;;;;;;;3.33;1.20;;;43.40;14.70;;;;;;5018016;28;20167;-72
2022/07/17 11:14:12;;;;;;;6.32;1.10;;;43.50;13.50;;;;;;5023822;28;20029;-71
2022/07/17 11:16:51;;;;;;;4.97;1.20;;;43.70;13.30;;;;;;5023807;28;20030;-71
2022/07/17 11:19:25;;;;;;;2.83;0.95;;;43.80;13.40;;;;;;5018711;28;20025;-72
2022/07/17 11:21:52;;;;;;;2.83;1.10;;;43.70;13.30;;;;;;5013422;28;20478;-74
2022/07/17 11:24:18;;;;;;;4.95;1.15;;;43.70;13.40;;;;;;5025646;28;20025;-72
2022/07/17 11:26:44;;;;;;;5.47;1.10;;;44.00;13.00;;;;;;5025565;28;20082;-72
2022/07/17 11:29:10;;;;;;;5.00;1.10;;;44.10;12.90;;;;;;5024167;28;20052;-71
2022/07/17 11:31:36;;;;;;;3.85;0.95;;;43.80;13.20;;;;;;5024840;28;20042;-77
2022/07/17 11:34:08;;;;;;;3.83;0.90;;;43.70;13.20;;;;;;5022224;28;20026;-74
2022/07/17 11:36:41;;;;;;;2.15;0.98;;;44.00;13.10;;;;;;5022790;28;20025;-81
2022/07/17 11:39:13;;;;;;;4.22;1.10;;;44.10;13.00;;;;;;5022108;28;20037;-75
2022/07/17 11:41:41;;;;;;;1.65;0.75;;;44.30;13.20;;;;;;5022550;28;20021;-75
2022/07/17 11:44:10;;;;;;;4.32;1.00;;;44.40;12.90;;;;;;5023660;28;20079;-72
2022/07/17 11:46:36;;;;;;;;;;;44.70;12.10;;;;;;5022641;28;20134;-73
2022/07/17 11:49:04;;;;;;;5.30;1.00;;;44.90;12.10;;;;;;5026288;28;19962;-75
2022/07/17 11:51:35;;;;;;;2.72;1.00;;;44.80;12.70;;;;;;5024969;28;20034;-72
2022/07/17 11:54:09;;;;;;;2.15;0.90;;;45.00;12.40;;;;;;5022360;28;20029;-73
2022/07/17 11:56:35;;;;;;;4.30;0.93;;;45.00;12.20;;;;;;5023359;28;20522;-71
2022/07/17 11:59:02;;;;;;;2.03;0.90;;;44.80;12.40;;;;;;5028060;28;20033;-73
2022/07/17 12:01:40;;;;;;;2.72;0.90;;;44.70;12.50;;;;;;5024225;28;20049;-72
2022/07/17 12:04:08;;;;;;;3.38;0.90;;;44.80;12.60;;;;;;5027222;28;20044;-73
2022/07/17 12:06:34;;;;;;;3.00;1.00;;;45.10;12.50;;;;;;5028317;28;20036;-75
2022/07/17 12:09:00;;;;;;;2.47;0.85;;;45.10;12.30;;;;;;5028686;28;20056;-73
2022/07/17 12:11:25;;;;;;;3.53;0.93;;;45.50;12.10;;;;;;5028399;28;20050;-75
2022/07/17 12:13:51;;;;;;;3.90;0.90;;;45.40;12.20;;;;;;5026049;28;20824;-71
2022/07/17 12:16:28;;;;;;;3.10;0.90;;;45.50;12.20;;;;;;5022906;28;20495;-70
2022/07/17 12:19:05;;;;;;;4.88;0.93;;;45.10;11.80;;;;;;5027518;28;20025;-72
2022/07/17 12:21:33;;;;;;;3.33;0.80;;;45.10;12.00;;;;;;5029673;28;20475;-74
2022/07/17 12:24:05;;;;;;;2.77;0.87;;;45.00;12.30;;;;;;5027524;28;20480;-70
2022/07/17 12:26:32;;;;;;;3.08;0.88;;;45.00;12.20;;;;;;5028720;28;20459;-72
2022/07/17 12:28:58;;;;;;;2.00;0.88;;;45.00;12.30;;;;;;5027336;28;20075;-72
2022/07/17 12:31:24;;;;;;;2.95;0.70;;;45.10;12.30;;;;;;5026575;28;20037;-70
2022/07/17 12:33:54;;;;;;;3.33;0.93;;;45.20;12.80;;;;;;5028470;28;20037;-70
2022/07/17 12:36:21;;;;;;;2.13;0.90;;;44.70;12.20;;;;;;5027342;28;20095;-73
2022/07/17 12:38:47;;;;;;;2.33;0.90;;;44.60;12.40;;;;;;5024709;28;20030;-71
2022/07/17 12:41:13;;;;;;;2.90;0.82;;;44.60;12.40;;;;;;5026933;28;20038;-70
2022/07/17 12:43:39;;;;;;;3.08;1.00;;;44.70;12.40;;;;;;5027675;28;20033;-71
2022/07/17 12:46:05;;;;;;;5.03;0.95;;;44.50;12.60;;;;;;5023156;28;20025;-72
2022/07/17 12:48:31;;;;;;;2.55;0.93;;;44.30;12.50;;;;;;5027614;28;20033;-71
2022/07/17 12:50:57;;;;;;;3.05;0.90;;;44.10;12.30;;;;;;5021608;28;20052;-71
2022/07/17 12:53:23;;;;;;;2.05;0.80;;;43.90;12.50;;;;;;5032069;28;20041;-70